sensor_id;sensor_type;location;lat;lon;timestamp;P1;durP1;ratioP1;P2;durP2;ratioP2
3801;SDS011;1916;51.798;12.246;2024-01-06T00:01:24;34.63;;;22.87;;
3801;SDS011;1916;51.798;12.246;2024-01-06T00:03:26;34.70;;;22.20;;
3801;SDS011;1916;51.798;12.246;2024-01-06T00:05:28;29.90;;;20.80;;
3801;SDS011;1916;51.798;12.246;2024-01-06T00:07:30;35.90;;;21.47;;
3801;SDS011;1916;51.798;12.246;2024-01-06T00:09:33;37.50;;;21.77;;
3801;SDS011;1916;51.798;12.246;2024-01-06T00:11:35;40.00;;;22.77;;
3801;SDS011;1916;51.798;12.246;2024-01-06T00:13:37;40.43;;;23.57;;
3801;SDS011;1916;51.798;12.246;2024-01-06T00:15:39;33.23;;;21.20;;
3801;SDS011;1916;51.798;12.246;2024-01-06T00:17:41;41.20;;;22.77;;
3801;SDS011;1916;51.798;12.246;2024-01-06T00:19:43;45.20;;;25.30;;
3801;SDS011;1916;51.798;12.246;2024-01-06T00:21:46;41.60;;;26.10;;
3801;SDS011;1916;51.798;12.246;2024-01-06T00:23:48;47.47;;;24.77;;
3801;SDS011;1916;51.798;12.246;2024-01-06T00:25:50;39.53;;;23.90;;
3801;SDS011;1916;51.798;12.246;2024-01-06T00:27:52;38.43;;;24.10;;
3801;SDS011;1916;51.798;12.246;2024-01-06T00:29:54;40.77;;;24.73;;
3801;SDS011;1916;51.798;12.246;2024-01-06T00:31:56;36.97;;;23.80;;
3801;SDS011;1916;51.798;12.246;2024-01-06T00:33:58;44.37;;;26.00;;
3801;SDS011;1916;51.798;12.246;2024-01-06T00:36:01;41.17;;;23.70;;
3801;SDS011;1916;51.798;12.246;2024-01-06T00:38:03;36.27;;;22.23;;
3801;SDS011;1916;51.798;12.246;2024-01-06T00:40:05;37.60;;;23.83;;
3801;SDS011;1916;51.798;12.246;2024-01-06T00:42:08;33.10;;;24.00;;
3801;SDS011;1916;51.798;12.246;2024-01-06T00:44:10;34.60;;;21.30;;
3801;SDS011;1916;51.798;12.246;2024-01-06T00:46:12;39.47;;;22.37;;
3801;SDS011;1916;51.798;12.246;2024-01-06T00:48:14;38.87;;;21.57;;
3801;SDS011;1916;51.798;12.246;2024-01-06T00:50:17;37.00;;;22.60;;
3801;SDS011;1916;51.798;12.246;2024-01-06T00:52:21;31.70;;;19.97;;
3801;SDS011;1916;51.798;12.246;2024-01-06T00:54:23;38.70;;;23.90;;
3801;SDS011;1916;51.798;12.246;2024-01-06T00:56:25;31.20;;;19.03;;
3801;SDS011;1916;51.798;12.246;2024-01-06T00:58:28;30.90;;;20.33;;
3801;SDS011;1916;51.798;12.246;2024-01-06T01:00:30;33.13;;;20.23;;
3801;SDS011;1916;51.798;12.246;2024-01-06T01:02:32;34.77;;;19.07;;
3801;SDS011;1916;51.798;12.246;2024-01-06T01:04:37;35.07;;;21.33;;
3801;SDS011;1916;51.798;12.246;2024-01-06T01:06:39;32.93;;;22.10;;
3801;SDS011;1916;51.798;12.246;2024-01-06T01:08:41;36.10;;;20.60;;
3801;SDS011;1916;51.798;12.246;2024-01-06T01:10:43;34.90;;;20.70;;
3801;SDS011;1916;51.798;12.246;2024-01-06T01:12:47;35.07;;;20.37;;
3801;SDS011;1916;51.798;12.246;2024-01-06T01:14:49;34.80;;;20.73;;
3801;SDS011;1916;51.798;12.246;2024-01-06T01:16:52;33.00;;;21.00;;
3801;SDS011;1916;51.798;12.246;2024-01-06T01:18:54;32.77;;;19.97;;
3801;SDS011;1916;51.798;12.246;2024-01-06T01:20:57;35.40;;;20.67;;
3801;SDS011;1916;51.798;12.246;2024-01-06T01:22:59;47.23;;;21.33;;
3801;SDS011;1916;51.798;12.246;2024-01-06T01:25:01;33.33;;;20.37;;
3801;SDS011;1916;51.798;12.246;2024-01-06T01:27:09;28.93;;;19.83;;
3801;SDS011;1916;51.798;12.246;2024-01-06T01:29:11;33.83;;;21.03;;
3801;SDS011;1916;51.798;12.246;2024-01-06T01:31:13;31.73;;;20.27;;
3801;SDS011;1916;51.798;12.246;2024-01-06T01:33:16;33.33;;;20.33;;
3801;SDS011;1916;51.798;12.246;2024-01-06T01:35:18;31.57;;;19.40;;
3801;SDS011;1916;51.798;12.246;2024-01-06T01:37:21;32.03;;;19.50;;
3801;SDS011;1916;51.798;12.246;2024-01-06T01:39:23;32.83;;;20.50;;
3801;SDS011;1916;51.798;12.246;2024-01-06T01:41:25;37.57;;;20.87;;
3801;SDS011;1916;51.798;12.246;2024-01-06T01:43:27;40.23;;;20.00;;
3801;SDS011;1916;51.798;12.246;2024-01-06T01:45:30;37.70;;;20.80;;
3801;SDS011;1916;51.798;12.246;2024-01-06T01:47:33;30.63;;;19.63;;
3801;SDS011;1916;51.798;12.246;2024-01-06T01:49:35;36.10;;;22.10;;
3801;SDS011;1916;51.798;12.246;2024-01-06T01:51:38;33.03;;;20.40;;
3801;SDS011;1916;51.798;12.246;2024-01-06T01:53:40;28.60;;;20.70;;
3801;SDS011;1916;51.798;12.246;2024-01-06T01:55:42;35.90;;;20.40;;
3801;SDS011;1916;51.798;12.246;2024-01-06T01:57:45;44.57;;;21.03;;
3801;SDS011;1916;51.798;12.246;2024-01-06T01:59:48;41.43;;;19.70;;
3801;SDS011;1916;51.798;12.246;2024-01-06T02:01:51;32.20;;;19.80;;
3801;SDS011;1916;51.798;12.246;2024-01-06T02:03:53;37.00;;;21.53;;
3801;SDS011;1916;51.798;12.246;2024-01-06T02:05:55;33.17;;;21.00;;
3801;SDS011;1916;51.798;12.246;2024-01-06T02:07:57;37.60;;;20.97;;
3801;SDS011;1916;51.798;12.246;2024-01-06T02:10:00;29.07;;;19.70;;
3801;SDS011;1916;51.798;12.246;2024-01-06T02:12:02;30.97;;;20.40;;
3801;SDS011;1916;51.798;12.246;2024-01-06T02:14:04;33.00;;;21.00;;
3801;SDS011;1916;51.798;12.246;2024-01-06T02:16:07;34.93;;;21.63;;
3801;SDS011;1916;51.798;12.246;2024-01-06T02:18:09;36.83;;;22.50;;
3801;SDS011;1916;51.798;12.246;2024-01-06T02:20:12;33.10;;;20.63;;
3801;SDS011;1916;51.798;12.246;2024-01-06T02:22:15;38.20;;;22.70;;
3801;SDS011;1916;51.798;12.246;2024-01-06T02:24:17;42.10;;;24.47;;
3801;SDS011;1916;51.798;12.246;2024-01-06T02:26:20;38.07;;;24.10;;
3801;SDS011;1916;51.798;12.246;2024-01-06T02:28:22;37.70;;;24.07;;
3801;SDS011;1916;51.798;12.246;2024-01-06T02:30:24;39.93;;;24.37;;
3801;SDS011;1916;51.798;12.246;2024-01-06T02:32:27;44.10;;;23.83;;
3801;SDS011;1916;51.798;12.246;2024-01-06T02:34:29;41.93;;;24.57;;
3801;SDS011;1916;51.798;12.246;2024-01-06T02:36:31;48.73;;;24.80;;
3801;SDS011;1916;51.798;12.246;2024-01-06T02:38:33;40.77;;;23.67;;
3801;SDS011;1916;51.798;12.246;2024-01-06T02:40:36;37.17;;;22.90;;
3801;SDS011;1916;51.798;12.246;2024-01-06T02:42:38;40.23;;;25.00;;
3801;SDS011;1916;51.798;12.246;2024-01-06T02:44:40;54.23;;;26.47;;
3801;SDS011;1916;51.798;12.246;2024-01-06T02:46:42;37.73;;;25.33;;
3801;SDS011;1916;51.798;12.246;2024-01-06T02:48:45;45.60;;;26.90;;
3801;SDS011;1916;51.798;12.246;2024-01-06T02:50:47;45.77;;;28.53;;
3801;SDS011;1916;51.798;12.246;2024-01-06T02:52:49;39.33;;;25.70;;
3801;SDS011;1916;51.798;12.246;2024-01-06T02:54:51;37.40;;;24.73;;
3801;SDS011;1916;51.798;12.246;2024-01-06T02:56:54;41.77;;;26.23;;
3801;SDS011;1916;51.798;12.246;2024-01-06T02:58:56;49.77;;;26.30;;
3801;SDS011;1916;51.798;12.246;2024-01-06T03:00:58;47.10;;;27.73;;
3801;SDS011;1916;51.798;12.246;2024-01-06T03:03:01;37.80;;;24.07;;
3801;SDS011;1916;51.798;12.246;2024-01-06T03:05:03;41.97;;;26.13;;
3801;SDS011;1916;51.798;12.246;2024-01-06T03:07:06;39.80;;;26.10;;
3801;SDS011;1916;51.798;12.246;2024-01-06T03:09:08;37.70;;;25.53;;
3801;SDS011;1916;51.798;12.246;2024-01-06T03:11:10;48.70;;;28.23;;
3801;SDS011;1916;51.798;12.246;2024-01-06T03:13:12;39.33;;;24.83;;
3801;SDS011;1916;51.798;12.246;2024-01-06T03:15:15;45.10;;;25.60;;
3801;SDS011;1916;51.798;12.246;2024-01-06T03:17:17;40.70;;;23.50;;
3801;SDS011;1916;51.798;12.246;2024-01-06T03:19:19;43.47;;;24.50;;
3801;SDS011;1916;51.798;12.246;2024-01-06T03:21:22;38.30;;;23.70;;
3801;SDS011;1916;51.798;12.246;2024-01-06T03:23:24;45.93;;;26.53;;
3801;SDS011;1916;51.798;12.246;2024-01-06T03:25:26;38.60;;;23.90;;
3801;SDS011;1916;51.798;12.246;2024-01-06T03:27:29;41.13;;;24.63;;
3801;SDS011;1916;51.798;12.246;2024-01-06T03:29:31;40.37;;;24.27;;
3801;SDS011;1916;51.798;12.246;2024-01-06T03:31:33;41.93;;;24.40;;
3801;SDS011;1916;51.798;12.246;2024-01-06T03:33:36;42.30;;;24.43;;
3801;SDS011;1916;51.798;12.246;2024-01-06T03:35:38;39.43;;;25.00;;
3801;SDS011;1916;51.798;12.246;2024-01-06T03:37:40;34.87;;;23.43;;
3801;SDS011;1916;51.798;12.246;2024-01-06T03:39:43;38.90;;;23.70;;
3801;SDS011;1916;51.798;12.246;2024-01-06T03:41:45;39.20;;;24.60;;
3801;SDS011;1916;51.798;12.246;2024-01-06T03:43:47;35.83;;;24.33;;
3801;SDS011;1916;51.798;12.246;2024-01-06T03:45:49;38.70;;;24.87;;
3801;SDS011;1916;51.798;12.246;2024-01-06T03:47:51;44.87;;;27.23;;
3801;SDS011;1916;51.798;12.246;2024-01-06T03:49:54;38.10;;;23.03;;
3801;SDS011;1916;51.798;12.246;2024-01-06T03:51:56;44.83;;;25.67;;
3801;SDS011;1916;51.798;12.246;2024-01-06T03:53:58;38.07;;;24.47;;
3801;SDS011;1916;51.798;12.246;2024-01-06T03:56:01;40.47;;;25.17;;
3801;SDS011;1916;51.798;12.246;2024-01-06T03:58:03;50.23;;;27.13;;
3801;SDS011;1916;51.798;12.246;2024-01-06T04:00:05;40.87;;;24.23;;
3801;SDS011;1916;51.798;12.246;2024-01-06T04:02:09;40.00;;;25.93;;
3801;SDS011;1916;51.798;12.246;2024-01-06T04:04:12;53.73;;;28.37;;
3801;SDS011;1916;51.798;12.246;2024-01-06T04:06:15;41.20;;;24.73;;
3801;SDS011;1916;51.798;12.246;2024-01-06T04:08:17;49.80;;;28.13;;
3801;SDS011;1916;51.798;12.246;2024-01-06T04:10:20;54.63;;;28.53;;
3801;SDS011;1916;51.798;12.246;2024-01-06T04:12:22;65.20;;;29.47;;
3801;SDS011;1916;51.798;12.246;2024-01-06T04:14:24;49.30;;;25.33;;
3801;SDS011;1916;51.798;12.246;2024-01-06T04:16:27;45.30;;;26.67;;
3801;SDS011;1916;51.798;12.246;2024-01-06T04:18:29;44.73;;;25.90;;
3801;SDS011;1916;51.798;12.246;2024-01-06T04:20:32;56.93;;;28.40;;
3801;SDS011;1916;51.798;12.246;2024-01-06T04:22:34;52.50;;;28.33;;
3801;SDS011;1916;51.798;12.246;2024-01-06T04:24:37;61.80;;;27.00;;
3801;SDS011;1916;51.798;12.246;2024-01-06T04:26:40;53.63;;;27.53;;
3801;SDS011;1916;51.798;12.246;2024-01-06T04:28:42;46.30;;;25.33;;
3801;SDS011;1916;51.798;12.246;2024-01-06T04:30:44;46.13;;;23.80;;
3801;SDS011;1916;51.798;12.246;2024-01-06T04:32:47;43.53;;;22.77;;
3801;SDS011;1916;51.798;12.246;2024-01-06T04:34:52;42.93;;;23.27;;
3801;SDS011;1916;51.798;12.246;2024-01-06T04:36:54;42.50;;;23.17;;
3801;SDS011;1916;51.798;12.246;2024-01-06T04:38:56;45.50;;;22.23;;
3801;SDS011;1916;51.798;12.246;2024-01-06T04:40:58;47.87;;;25.00;;
3801;SDS011;1916;51.798;12.246;2024-01-06T04:43:01;46.13;;;21.80;;
3801;SDS011;1916;51.798;12.246;2024-01-06T04:45:03;56.07;;;23.07;;
3801;SDS011;1916;51.798;12.246;2024-01-06T04:47:06;41.00;;;21.67;;
3801;SDS011;1916;51.798;12.246;2024-01-06T04:49:09;43.77;;;21.10;;
3801;SDS011;1916;51.798;12.246;2024-01-06T04:51:12;35.40;;;20.50;;
3801;SDS011;1916;51.798;12.246;2024-01-06T04:53:15;38.30;;;20.40;;
3801;SDS011;1916;51.798;12.246;2024-01-06T04:55:17;42.90;;;21.57;;
3801;SDS011;1916;51.798;12.246;2024-01-06T04:57:20;42.70;;;20.70;;
3801;SDS011;1916;51.798;12.246;2024-01-06T04:59:22;51.80;;;21.27;;
3801;SDS011;1916;51.798;12.246;2024-01-06T05:01:25;43.47;;;17.27;;
3801;SDS011;1916;51.798;12.246;2024-01-06T05:03:27;37.33;;;18.20;;
3801;SDS011;1916;51.798;12.246;2024-01-06T05:05:29;46.33;;;17.23;;
3801;SDS011;1916;51.798;12.246;2024-01-06T05:07:32;45.07;;;19.70;;
3801;SDS011;1916;51.798;12.246;2024-01-06T05:09:34;40.80;;;19.20;;
3801;SDS011;1916;51.798;12.246;2024-01-06T05:11:36;36.20;;;19.37;;
3801;SDS011;1916;51.798;12.246;2024-01-06T05:13:39;33.57;;;18.60;;
3801;SDS011;1916;51.798;12.246;2024-01-06T05:15:41;37.37;;;18.97;;
3801;SDS011;1916;51.798;12.246;2024-01-06T05:17:43;35.07;;;18.00;;
3801;SDS011;1916;51.798;12.246;2024-01-06T05:19:45;38.53;;;17.60;;
3801;SDS011;1916;51.798;12.246;2024-01-06T05:21:48;33.93;;;17.10;;
3801;SDS011;1916;51.798;12.246;2024-01-06T05:23:50;35.33;;;18.93;;
3801;SDS011;1916;51.798;12.246;2024-01-06T05:25:53;35.17;;;17.60;;
3801;SDS011;1916;51.798;12.246;2024-01-06T05:27:55;29.20;;;16.93;;
3801;SDS011;1916;51.798;12.246;2024-01-06T05:29:57;32.33;;;16.77;;
3801;SDS011;1916;51.798;12.246;2024-01-06T05:32:00;42.03;;;19.63;;
3801;SDS011;1916;51.798;12.246;2024-01-06T05:34:02;42.87;;;18.70;;
3801;SDS011;1916;51.798;12.246;2024-01-06T05:36:04;34.40;;;18.80;;
3801;SDS011;1916;51.798;12.246;2024-01-06T05:38:07;33.30;;;18.27;;
3801;SDS011;1916;51.798;12.246;2024-01-06T05:40:09;42.33;;;18.93;;
3801;SDS011;1916;51.798;12.246;2024-01-06T05:42:12;30.80;;;16.53;;
3801;SDS011;1916;51.798;12.246;2024-01-06T05:44:15;34.10;;;18.33;;
3801;SDS011;1916;51.798;12.246;2024-01-06T05:46:21;42.33;;;19.03;;
3801;SDS011;1916;51.798;12.246;2024-01-06T05:48:24;32.43;;;18.80;;
3801;SDS011;1916;51.798;12.246;2024-01-06T05:50:27;35.83;;;19.43;;
3801;SDS011;1916;51.798;12.246;2024-01-06T05:52:29;38.13;;;18.30;;
3801;SDS011;1916;51.798;12.246;2024-01-06T05:54:31;42.60;;;19.93;;
3801;SDS011;1916;51.798;12.246;2024-01-06T05:56:34;38.47;;;18.53;;
3801;SDS011;1916;51.798;12.246;2024-01-06T05:58:36;39.67;;;20.60;;
3801;SDS011;1916;51.798;12.246;2024-01-06T06:00:39;43.13;;;21.80;;
3801;SDS011;1916;51.798;12.246;2024-01-06T06:02:41;53.57;;;22.30;;
3801;SDS011;1916;51.798;12.246;2024-01-06T06:04:44;48.23;;;22.57;;
3801;SDS011;1916;51.798;12.246;2024-01-06T06:06:46;47.33;;;21.27;;
3801;SDS011;1916;51.798;12.246;2024-01-06T06:08:48;64.13;;;22.27;;
3801;SDS011;1916;51.798;12.246;2024-01-06T06:10:51;70.53;;;21.70;;
3801;SDS011;1916;51.798;12.246;2024-01-06T06:13:03;59.80;;;21.60;;
3801;SDS011;1916;51.798;12.246;2024-01-06T06:15:05;73.93;;;19.57;;
3801;SDS011;1916;51.798;12.246;2024-01-06T06:17:08;56.73;;;19.40;;
3801;SDS011;1916;51.798;12.246;2024-01-06T06:19:10;50.93;;;21.30;;
3801;SDS011;1916;51.798;12.246;2024-01-06T06:21:13;49.87;;;21.87;;
3801;SDS011;1916;51.798;12.246;2024-01-06T06:23:15;49.43;;;21.00;;
3801;SDS011;1916;51.798;12.246;2024-01-06T06:25:17;61.37;;;22.97;;
3801;SDS011;1916;51.798;12.246;2024-01-06T06:27:19;87.40;;;23.03;;
3801;SDS011;1916;51.798;12.246;2024-01-06T06:29:22;62.37;;;22.93;;
3801;SDS011;1916;51.798;12.246;2024-01-06T06:31:24;59.60;;;21.53;;
3801;SDS011;1916;51.798;12.246;2024-01-06T06:33:26;64.83;;;21.73;;
3801;SDS011;1916;51.798;12.246;2024-01-06T06:35:29;70.57;;;23.40;;
3801;SDS011;1916;51.798;12.246;2024-01-06T06:37:31;77.00;;;24.50;;
3801;SDS011;1916;51.798;12.246;2024-01-06T06:39:33;69.13;;;22.70;;
3801;SDS011;1916;51.798;12.246;2024-01-06T06:41:37;60.50;;;21.87;;
3801;SDS011;1916;51.798;12.246;2024-01-06T06:43:40;82.70;;;23.37;;
3801;SDS011;1916;51.798;12.246;2024-01-06T06:45:43;48.67;;;21.53;;
3801;SDS011;1916;51.798;12.246;2024-01-06T06:47:45;82.10;;;22.33;;
3801;SDS011;1916;51.798;12.246;2024-01-06T06:49:48;60.63;;;21.73;;
3801;SDS011;1916;51.798;12.246;2024-01-06T06:51:50;65.53;;;22.33;;
3801;SDS011;1916;51.798;12.246;2024-01-06T06:53:52;71.70;;;23.90;;
3801;SDS011;1916;51.798;12.246;2024-01-06T06:55:54;98.83;;;23.20;;
3801;SDS011;1916;51.798;12.246;2024-01-06T06:57:56;53.73;;;21.40;;
3801;SDS011;1916;51.798;12.246;2024-01-06T06:59:59;90.50;;;24.10;;
3801;SDS011;1916;51.798;12.246;2024-01-06T07:02:02;57.53;;;21.63;;
3801;SDS011;1916;51.798;12.246;2024-01-06T07:04:05;101.33;;;25.80;;
3801;SDS011;1916;51.798;12.246;2024-01-06T07:06:07;78.73;;;25.90;;
3801;SDS011;1916;51.798;12.246;2024-01-06T07:08:09;84.33;;;24.47;;
3801;SDS011;1916;51.798;12.246;2024-01-06T07:10:12;54.63;;;22.60;;
3801;SDS011;1916;51.798;12.246;2024-01-06T07:12:14;86.00;;;24.50;;
3801;SDS011;1916;51.798;12.246;2024-01-06T07:14:17;76.57;;;25.57;;
3801;SDS011;1916;51.798;12.246;2024-01-06T07:16:19;66.23;;;23.67;;
3801;SDS011;1916;51.798;12.246;2024-01-06T07:18:21;82.20;;;24.57;;
3801;SDS011;1916;51.798;12.246;2024-01-06T07:20:26;114.10;;;26.37;;
3801;SDS011;1916;51.798;12.246;2024-01-06T07:22:28;90.43;;;25.10;;
3801;SDS011;1916;51.798;12.246;2024-01-06T07:24:30;79.83;;;23.90;;
3801;SDS011;1916;51.798;12.246;2024-01-06T07:26:32;84.50;;;26.20;;
3801;SDS011;1916;51.798;12.246;2024-01-06T07:28:34;73.47;;;24.13;;
3801;SDS011;1916;51.798;12.246;2024-01-06T07:30:37;86.73;;;25.20;;
3801;SDS011;1916;51.798;12.246;2024-01-06T07:32:39;88.50;;;25.23;;
3801;SDS011;1916;51.798;12.246;2024-01-06T07:34:42;73.97;;;25.23;;
3801;SDS011;1916;51.798;12.246;2024-01-06T07:36:45;64.43;;;23.80;;
3801;SDS011;1916;51.798;12.246;2024-01-06T07:38:47;69.53;;;26.27;;
3801;SDS011;1916;51.798;12.246;2024-01-06T07:40:50;94.37;;;26.53;;
3801;SDS011;1916;51.798;12.246;2024-01-06T07:42:52;76.47;;;27.03;;
3801;SDS011;1916;51.798;12.246;2024-01-06T07:44:54;75.23;;;27.03;;
3801;SDS011;1916;51.798;12.246;2024-01-06T07:46:56;85.43;;;25.87;;
3801;SDS011;1916;51.798;12.246;2024-01-06T07:48:59;114.47;;;29.30;;
3801;SDS011;1916;51.798;12.246;2024-01-06T07:51:02;73.23;;;25.70;;
3801;SDS011;1916;51.798;12.246;2024-01-06T07:53:05;55.23;;;23.93;;
3801;SDS011;1916;51.798;12.246;2024-01-06T07:55:07;78.37;;;27.43;;
3801;SDS011;1916;51.798;12.246;2024-01-06T07:57:09;70.20;;;27.63;;
3801;SDS011;1916;51.798;12.246;2024-01-06T07:59:13;70.80;;;25.50;;
3801;SDS011;1916;51.798;12.246;2024-01-06T08:01:15;67.47;;;28.07;;
3801;SDS011;1916;51.798;12.246;2024-01-06T08:03:18;86.67;;;30.40;;
3801;SDS011;1916;51.798;12.246;2024-01-06T08:05:20;103.00;;;31.17;;
3801;SDS011;1916;51.798;12.246;2024-01-06T08:07:22;109.13;;;31.13;;
3801;SDS011;1916;51.798;12.246;2024-01-06T08:09:25;86.97;;;32.93;;
3801;SDS011;1916;51.798;12.246;2024-01-06T08:11:27;93.60;;;31.73;;
3801;SDS011;1916;51.798;12.246;2024-01-06T08:13:29;85.80;;;29.93;;
3801;SDS011;1916;51.798;12.246;2024-01-06T08:15:31;84.63;;;31.67;;
3801;SDS011;1916;51.798;12.246;2024-01-06T08:17:34;99.63;;;32.47;;
3801;SDS011;1916;51.798;12.246;2024-01-06T08:19:37;97.63;;;32.33;;
3801;SDS011;1916;51.798;12.246;2024-01-06T08:21:39;92.10;;;30.00;;
3801;SDS011;1916;51.798;12.246;2024-01-06T08:23:42;85.80;;;30.97;;
3801;SDS011;1916;51.798;12.246;2024-01-06T08:25:44;92.13;;;30.57;;
3801;SDS011;1916;51.798;12.246;2024-01-06T08:27:47;76.77;;;31.40;;
3801;SDS011;1916;51.798;12.246;2024-01-06T08:29:50;82.77;;;30.50;;
3801;SDS011;1916;51.798;12.246;2024-01-06T08:31:52;97.20;;;31.90;;
3801;SDS011;1916;51.798;12.246;2024-01-06T08:33:56;74.53;;;29.10;;
3801;SDS011;1916;51.798;12.246;2024-01-06T08:35:59;84.97;;;30.13;;
3801;SDS011;1916;51.798;12.246;2024-01-06T08:38:01;72.47;;;29.80;;
3801;SDS011;1916;51.798;12.246;2024-01-06T08:40:04;92.27;;;30.93;;
3801;SDS011;1916;51.798;12.246;2024-01-06T08:42:07;78.90;;;30.27;;
3801;SDS011;1916;51.798;12.246;2024-01-06T08:44:09;67.93;;;29.40;;
3801;SDS011;1916;51.798;12.246;2024-01-06T08:46:12;80.07;;;30.17;;
3801;SDS011;1916;51.798;12.246;2024-01-06T08:48:14;83.27;;;29.40;;
3801;SDS011;1916;51.798;12.246;2024-01-06T08:50:17;61.03;;;28.40;;
3801;SDS011;1916;51.798;12.246;2024-01-06T08:52:19;93.90;;;29.73;;
3801;SDS011;1916;51.798;12.246;2024-01-06T08:54:22;72.27;;;26.80;;
3801;SDS011;1916;51.798;12.246;2024-01-06T08:56:24;79.73;;;29.07;;
3801;SDS011;1916;51.798;12.246;2024-01-06T08:58:27;71.77;;;29.70;;
3801;SDS011;1916;51.798;12.246;2024-01-06T09:00:30;85.63;;;28.83;;
3801;SDS011;1916;51.798;12.246;2024-01-06T09:02:32;70.20;;;28.60;;
3801;SDS011;1916;51.798;12.246;2024-01-06T09:04:34;70.03;;;27.43;;
3801;SDS011;1916;51.798;12.246;2024-01-06T09:06:36;81.27;;;29.53;;
3801;SDS011;1916;51.798;12.246;2024-01-06T09:08:39;72.87;;;29.53;;
3801;SDS011;1916;51.798;12.246;2024-01-06T09:10:41;79.23;;;29.80;;
3801;SDS011;1916;51.798;12.246;2024-01-06T09:12:44;72.50;;;29.40;;
3801;SDS011;1916;51.798;12.246;2024-01-06T09:14:47;60.03;;;27.77;;
3801;SDS011;1916;51.798;12.246;2024-01-06T09:16:49;80.90;;;29.20;;
3801;SDS011;1916;51.798;12.246;2024-01-06T09:18:52;63.60;;;27.67;;
3801;SDS011;1916;51.798;12.246;2024-01-06T09:20:54;74.37;;;30.20;;
3801;SDS011;1916;51.798;12.246;2024-01-06T09:22:56;75.13;;;29.80;;
3801;SDS011;1916;51.798;12.246;2024-01-06T09:24:59;82.50;;;28.70;;
3801;SDS011;1916;51.798;12.246;2024-01-06T09:27:03;73.23;;;30.77;;
3801;SDS011;1916;51.798;12.246;2024-01-06T09:29:05;84.43;;;32.63;;
3801;SDS011;1916;51.798;12.246;2024-01-06T09:31:07;69.60;;;29.10;;
3801;SDS011;1916;51.798;12.246;2024-01-06T09:33:09;86.57;;;29.77;;
3801;SDS011;1916;51.798;12.246;2024-01-06T09:35:12;88.43;;;32.53;;
3801;SDS011;1916;51.798;12.246;2024-01-06T09:37:14;73.00;;;29.90;;
3801;SDS011;1916;51.798;12.246;2024-01-06T09:39:18;72.77;;;29.20;;
3801;SDS011;1916;51.798;12.246;2024-01-06T09:41:20;67.37;;;27.83;;
3801;SDS011;1916;51.798;12.246;2024-01-06T09:43:23;76.70;;;29.50;;
3801;SDS011;1916;51.798;12.246;2024-01-06T09:45:25;76.87;;;29.40;;
3801;SDS011;1916;51.798;12.246;2024-01-06T09:47:28;68.20;;;29.20;;
3801;SDS011;1916;51.798;12.246;2024-01-06T09:49:34;69.33;;;27.20;;
3801;SDS011;1916;51.798;12.246;2024-01-06T09:51:44;76.20;;;29.00;;
3801;SDS011;1916;51.798;12.246;2024-01-06T09:53:59;71.93;;;28.60;;
3801;SDS011;1916;51.798;12.246;2024-01-06T09:56:08;74.63;;;27.83;;
3801;SDS011;1916;51.798;12.246;2024-01-06T09:58:11;69.63;;;27.47;;
3801;SDS011;1916;51.798;12.246;2024-01-06T10:00:13;71.30;;;30.13;;
3801;SDS011;1916;51.798;12.246;2024-01-06T10:02:16;78.43;;;33.00;;
3801;SDS011;1916;51.798;12.246;2024-01-06T10:04:19;80.77;;;32.50;;
3801;SDS011;1916;51.798;12.246;2024-01-06T10:06:25;71.77;;;29.60;;
3801;SDS011;1916;51.798;12.246;2024-01-06T10:08:27;71.57;;;28.57;;
3801;SDS011;1916;51.798;12.246;2024-01-06T10:10:29;70.23;;;28.17;;
3801;SDS011;1916;51.798;12.246;2024-01-06T10:12:32;64.43;;;25.90;;
3801;SDS011;1916;51.798;12.246;2024-01-06T10:14:34;70.57;;;29.93;;
3801;SDS011;1916;51.798;12.246;2024-01-06T10:16:37;81.27;;;33.10;;
3801;SDS011;1916;51.798;12.246;2024-01-06T10:18:41;80.70;;;30.60;;
3801;SDS011;1916;51.798;12.246;2024-01-06T10:20:44;65.83;;;29.27;;
3801;SDS011;1916;51.798;12.246;2024-01-06T10:22:47;62.97;;;27.80;;
3801;SDS011;1916;51.798;12.246;2024-01-06T10:24:50;71.13;;;29.40;;
3801;SDS011;1916;51.798;12.246;2024-01-06T10:26:52;73.57;;;29.67;;
3801;SDS011;1916;51.798;12.246;2024-01-06T10:28:55;76.07;;;29.80;;
3801;SDS011;1916;51.798;12.246;2024-01-06T10:30:57;75.63;;;28.00;;
3801;SDS011;1916;51.798;12.246;2024-01-06T10:32:59;76.73;;;30.40;;
3801;SDS011;1916;51.798;12.246;2024-01-06T10:35:02;83.00;;;30.17;;
3801;SDS011;1916;51.798;12.246;2024-01-06T10:37:05;75.53;;;28.10;;
3801;SDS011;1916;51.798;12.246;2024-01-06T10:39:08;75.00;;;29.20;;
3801;SDS011;1916;51.798;12.246;2024-01-06T10:41:11;76.53;;;30.33;;
3801;SDS011;1916;51.798;12.246;2024-01-06T10:43:13;84.27;;;30.77;;
3801;SDS011;1916;51.798;12.246;2024-01-06T10:45:16;82.27;;;30.87;;
3801;SDS011;1916;51.798;12.246;2024-01-06T10:47:19;85.47;;;33.27;;
3801;SDS011;1916;51.798;12.246;2024-01-06T10:49:21;87.17;;;32.70;;
3801;SDS011;1916;51.798;12.246;2024-01-06T10:51:24;90.73;;;35.80;;
3801;SDS011;1916;51.798;12.246;2024-01-06T10:53:27;86.97;;;33.67;;
3801;SDS011;1916;51.798;12.246;2024-01-06T10:55:29;90.23;;;32.73;;
3801;SDS011;1916;51.798;12.246;2024-01-06T10:57:32;103.30;;;35.03;;
3801;SDS011;1916;51.798;12.246;2024-01-06T10:59:35;85.93;;;34.27;;
3801;SDS011;1916;51.798;12.246;2024-01-06T11:01:39;92.70;;;35.43;;
3801;SDS011;1916;51.798;12.246;2024-01-06T11:03:42;118.67;;;38.87;;
3801;SDS011;1916;51.798;12.246;2024-01-06T11:05:44;110.90;;;34.97;;
3801;SDS011;1916;51.798;12.246;2024-01-06T11:07:47;127.40;;;39.53;;
3801;SDS011;1916;51.798;12.246;2024-01-06T11:12:18;117.93;;;36.90;;
3801;SDS011;1916;51.798;12.246;2024-01-06T11:14:22;115.73;;;38.67;;
3801;SDS011;1916;51.798;12.246;2024-01-06T11:16:35;118.67;;;37.20;;
3801;SDS011;1916;51.798;12.246;2024-01-06T11:18:39;117.07;;;37.00;;
3801;SDS011;1916;51.798;12.246;2024-01-06T11:21:04;129.00;;;39.57;;
3801;SDS011;1916;51.798;12.246;2024-01-06T11:23:27;126.17;;;37.23;;
3801;SDS011;1916;51.798;12.246;2024-01-06T11:25:30;127.03;;;38.67;;
3801;SDS011;1916;51.798;12.246;2024-01-06T11:27:33;126.17;;;40.23;;
3801;SDS011;1916;51.798;12.246;2024-01-06T11:29:35;127.87;;;40.27;;
3801;SDS011;1916;51.798;12.246;2024-01-06T11:31:38;127.83;;;40.63;;
3801;SDS011;1916;51.798;12.246;2024-01-06T11:33:43;138.43;;;42.60;;
3801;SDS011;1916;51.798;12.246;2024-01-06T11:35:46;126.33;;;39.00;;
3801;SDS011;1916;51.798;12.246;2024-01-06T11:37:52;134.37;;;40.27;;
3801;SDS011;1916;51.798;12.246;2024-01-06T11:39:57;142.07;;;40.70;;
3801;SDS011;1916;51.798;12.246;2024-01-06T11:41:59;123.57;;;41.40;;
3801;SDS011;1916;51.798;12.246;2024-01-06T11:44:01;170.30;;;43.40;;
3801;SDS011;1916;51.798;12.246;2024-01-06T11:46:04;163.13;;;44.83;;
3801;SDS011;1916;51.798;12.246;2024-01-06T11:48:09;134.03;;;40.67;;
3801;SDS011;1916;51.798;12.246;2024-01-06T11:50:15;157.90;;;44.37;;
3801;SDS011;1916;51.798;12.246;2024-01-06T11:52:17;154.13;;;45.33;;
3801;SDS011;1916;51.798;12.246;2024-01-06T11:54:21;166.97;;;46.80;;
3801;SDS011;1916;51.798;12.246;2024-01-06T11:56:25;160.20;;;48.13;;
3801;SDS011;1916;51.798;12.246;2024-01-06T11:58:27;176.27;;;47.77;;
3801;SDS011;1916;51.798;12.246;2024-01-06T12:00:30;156.10;;;45.70;;
3801;SDS011;1916;51.798;12.246;2024-01-06T12:02:33;168.77;;;48.43;;
3801;SDS011;1916;51.798;12.246;2024-01-06T12:04:36;168.27;;;47.47;;
3801;SDS011;1916;51.798;12.246;2024-01-06T12:06:38;182.43;;;49.30;;
3801;SDS011;1916;51.798;12.246;2024-01-06T12:08:40;169.17;;;50.20;;
3801;SDS011;1916;51.798;12.246;2024-01-06T12:10:43;171.43;;;48.37;;